Time;durP1;ratioP1;P1;durP2;ratioP2;P2;SDS_P1;SDS_P2;PMS_P1;PMS_P2;Temp;Humidity;BMP_temperature;BMP_pressure;BME280_temperature;BME280_humidity;BME280_pressure;Samples;Min_cycle;Max_cycle;Signal;HPM_P1;HPM_P2
2023/10/11 00:00:44;;;;;;;5.93;4.63;;;15.40;99.90;;;;;;6115357;23;20380;-75
2023/10/11 00:05:42;;;;;;;7.57;4.20;;;15.40;99.90;;;;;;6119615;23;20439;-73
2023/10/11 00:08:16;;;;;;;8.70;4.20;;;15.50;99.90;;;;;;6121058;23;20380;-73
2023/10/11 00:10:56;;;;;;;5.27;4.17;;;15.40;99.90;;;;;;6097627;23;20376;-74
2023/10/11 00:13:32;;;;;;;7.70;4.50;;;15.50;99.90;;;;;;6118556;23;20443;-74
2023/10/11 00:16:07;;;;;;;7.40;4.43;;;15.40;99.90;;;;;;6089487;23;20380;-75
2023/10/11 00:18:34;;;;;;;7.33;4.10;;;15.40;99.90;;;;;;6113787;23;20365;-73
2023/10/11 00:21:09;;;;;;;7.27;4.50;;;15.40;99.90;;;;;;6111821;23;20386;-73
2023/10/11 00:23:36;;;;;;;9.47;5.60;;;15.30;99.90;;;;;;6110847;23;20674;-74
2023/10/11 00:26:04;;;;;;;9.53;4.60;;;15.30;99.90;;;;;;6110457;23;20388;-74
2023/10/11 00:28:33;;;;;;;8.97;4.77;;;15.30;99.90;;;;;;6109404;23;20380;-72
2023/10/11 00:31:01;;;;;;;8.13;5.20;;;15.30;99.90;;;;;;6085549;23;20385;-72
2023/10/11 00:33:31;;;;;;;9.60;4.67;;;15.30;99.90;;;;;;6110360;23;20438;-74
2023/10/11 00:36:04;;;;;;;5.70;3.60;;;15.30;99.90;;;;;;6110183;23;20448;-73
2023/10/11 00:38:42;;;;;;;4.90;3.70;;;15.20;99.90;;;;;;6085078;23;20388;-73
2023/10/11 00:41:12;;;;;;;9.27;4.70;;;15.20;99.90;;;;;;6110675;23;20431;-73
2023/10/11 00:43:41;;;;;;;5.70;4.30;;;15.10;99.90;;;;;;6109639;23;20412;-74
2023/10/11 00:46:09;;;;;;;11.17;4.50;;;15.10;99.90;;;;;;6109014;23;20393;-73
2023/10/11 00:48:53;;;;;;;9.63;4.80;;;15.20;99.90;;;;;;6107790;23;20397;-73
2023/10/11 00:51:23;;;;;;;7.00;4.10;;;15.10;99.90;;;;;;6084178;23;20389;-73
2023/10/11 00:53:50;;;;;;;6.73;4.90;;;15.20;99.90;;;;;;6082789;23;20425;-73
2023/10/11 00:56:18;;;;;;;8.07;4.73;;;15.10;99.90;;;;;;6105923;23;20373;-71
2023/10/11 00:58:44;;;;;;;9.13;4.80;;;15.10;99.90;;;;;;6106683;23;20424;-73
2023/10/11 01:01:10;;;;;;;7.90;5.03;;;15.10;99.90;;;;;;6132607;23;20368;-74
2023/10/11 01:03:37;;;;;;;9.77;4.77;;;15.10;99.90;;;;;;6082659;23;20164;-74
2023/10/11 01:06:04;;;;;;;9.23;5.10;;;15.10;99.90;;;;;;6105125;23;20361;-73
2023/10/11 01:08:48;;;;;;;7.27;4.87;;;15.10;99.90;;;;;;6105642;23;20389;-72
2023/10/11 01:11:14;;;;;;;5.37;3.80;;;15.10;99.90;;;;;;6106246;23;20630;-73
2023/10/11 01:13:42;;;;;;;6.37;4.47;;;15.00;99.90;;;;;;6127969;23;20438;-73
2023/10/11 01:16:09;;;;;;;7.67;5.47;;;15.10;99.90;;;;;;6105618;23;20388;-74
2023/10/11 01:18:36;;;;;;;7.67;4.77;;;15.00;99.90;;;;;;6104191;23;20380;-73
2023/10/11 01:21:07;;;;;;;9.50;5.23;;;15.00;99.90;;;;;;6104698;23;20787;-73
2023/10/11 01:23:34;;;;;;;7.03;4.87;;;15.10;99.90;;;;;;6103468;23;20446;-75
2023/10/11 01:26:09;;;;;;;8.33;5.17;;;15.00;99.90;;;;;;6106179;23;20369;-73
2023/10/11 01:28:37;;;;;;;7.70;5.00;;;15.00;99.90;;;;;;6104942;23;20638;-73
2023/10/11 01:31:08;;;;;;;6.07;4.50;;;15.00;99.90;;;;;;6105403;23;20676;-73
2023/10/11 01:33:41;;;;;;;6.97;4.77;;;15.00;99.90;;;;;;6104642;23;20432;-73
2023/10/11 01:36:21;;;;;;;6.40;5.30;;;14.90;99.90;;;;;;6105067;23;20697;-73
2023/10/11 01:38:47;;;;;;;10.00;6.17;;;14.90;99.90;;;;;;6105580;23;20372;-74
2023/10/11 01:41:21;;;;;;;9.90;4.80;;;14.90;99.90;;;;;;6106940;23;20364;-73
2023/10/11 01:43:50;;;;;;;7.43;5.00;;;14.80;99.90;;;;;;6106389;23;20388;-73
2023/10/11 01:46:18;;;;;;;6.70;4.23;;;14.80;99.90;;;;;;6105701;23;20398;-72
2023/10/11 01:48:45;;;;;;;10.23;5.00;;;14.70;99.90;;;;;;6108041;23;20365;-74
2023/10/11 01:51:21;;;;;;;6.40;4.97;;;14.80;99.90;;;;;;6104878;23;20435;-73
2023/10/11 01:53:46;;;;;;;7.23;4.70;;;14.70;99.90;;;;;;6106918;23;20427;-74
2023/10/11 01:56:13;;;;;;;7.30;4.80;;;14.60;99.90;;;;;;6105190;23;20467;-73
2023/10/11 01:58:42;;;;;;;13.67;5.87;;;14.60;99.90;;;;;;6082562;23;20180;-73
2023/10/11 02:01:21;;;;;;;8.50;5.53;;;14.70;99.90;;;;;;6108055;23;20372;-73
2023/10/11 02:03:51;;;;;;;6.70;4.77;;;14.70;99.90;;;;;;6106885;23;20725;-74
2023/10/11 02:06:18;;;;;;;7.23;4.90;;;14.80;99.90;;;;;;6107199;23;20371;-74
2023/10/11 02:08:44;;;;;;;11.13;5.23;;;14.80;99.90;;;;;;6105159;23;20384;-74
2023/10/11 02:11:09;;;;;;;7.87;4.87;;;14.80;99.90;;;;;;6105325;23;20420;-74
2023/10/11 02:13:39;;;;;;;8.77;6.03;;;14.90;99.90;;;;;;6106192;23;20185;-74
2023/10/11 02:16:09;;;;;;;6.67;4.83;;;14.80;99.90;;;;;;6105616;23;20155;-75
2023/10/11 02:18:35;;;;;;;7.97;4.80;;;14.80;99.90;;;;;;6105846;23;20361;-72
2023/10/11 02:21:06;;;;;;;10.23;5.17;;;14.80;99.90;;;;;;6106718;23;20365;-74
2023/10/11 02:23:39;;;;;;;6.03;4.20;;;14.80;99.90;;;;;;6103967;23;20219;-73
2023/10/11 02:26:12;;;;;;;6.20;4.87;;;14.70;99.90;;;;;;6104762;23;20380;-74
2023/10/11 02:28:39;;;;;;;6.57;4.77;;;14.70;99.90;;;;;;6104890;23;20377;-74
2023/10/11 02:31:06;;;;;;;10.33;4.50;;;14.70;99.90;;;;;;6105395;23;20369;-74
2023/10/11 02:33:33;;;;;;;5.83;4.13;;;14.70;99.90;;;;;;6106233;23;20416;-74
2023/10/11 02:36:08;;;;;;;6.37;3.73;;;14.70;99.90;;;;;;6106151;23;20349;-73
2023/10/11 02:38:38;;;;;;;5.47;3.90;;;14.60;99.90;;;;;;6108917;23;20375;-74
2023/10/11 02:41:04;;;;;;;6.03;4.63;;;14.50;99.90;;;;;;6107766;23;20353;-75
2023/10/11 02:43:47;;;;;;;7.20;4.70;;;14.50;99.90;;;;;;6107449;23;20394;-74
2023/10/11 02:46:13;;;;;;;5.10;3.40;;;14.40;99.90;;;;;;6107686;23;20163;-74
2023/10/11 02:48:45;;;;;;;5.70;4.10;;;14.40;99.90;;;;;;6105802;23;20364;-75
2023/10/11 02:51:17;;;;;;;6.07;4.07;;;14.20;99.90;;;;;;6103222;23;20431;-74
2023/10/11 02:53:43;;;;;;;7.30;4.97;;;14.20;99.90;;;;;;6103344;23;20460;-72
2023/10/11 02:56:11;;;;;;;11.13;5.30;;;14.20;99.90;;;;;;6104879;23;20746;-74
2023/10/11 02:58:39;;;;;;;7.10;4.97;;;14.20;99.90;;;;;;6102797;23;20368;-74
2023/10/11 03:01:20;;;;;;;8.80;4.63;;;14.30;99.90;;;;;;6080321;23;20376;-74
2023/10/11 03:03:52;;;;;;;5.00;3.70;;;14.30;99.90;;;;;;6102711;23;20632;-74
2023/10/11 03:06:21;;;;;;;8.10;4.77;;;14.30;99.90;;;;;;6103681;23;20397;-73
2023/10/11 03:08:46;;;;;;;10.13;5.47;;;14.30;99.90;;;;;;6104698;23;20361;-74
2023/10/11 03:11:15;;;;;;;9.87;5.30;;;14.30;99.90;;;;;;6127888;23;20499;-73
2023/10/11 03:13:43;;;;;;;8.00;4.80;;;14.30;99.90;;;;;;6103336;23;20191;-73
2023/10/11 03:16:13;;;;;;;7.60;4.67;;;14.30;99.90;;;;;;6103416;23;20400;-73
2023/10/11 03:18:40;;;;;;;6.90;4.90;;;14.30;99.90;;;;;;6104541;23;20376;-73
2023/10/11 03:21:20;;;;;;;11.93;5.23;;;14.30;99.90;;;;;;6105566;23;20365;-72
2023/10/11 03:23:47;;;;;;;10.63;5.07;;;14.30;99.90;;;;;;6103413;23;20412;-74
2023/10/11 03:26:31;;;;;;;6.00;4.37;;;14.30;99.90;;;;;;6103555;23;20377;-72
2023/10/11 03:29:04;;;;;;;6.20;4.37;;;14.20;99.90;;;;;;6102863;23;20381;-73
2023/10/11 03:31:34;;;;;;;8.50;5.00;;;14.20;99.90;;;;;;6105843;23;20419;-72
2023/10/11 03:34:10;;;;;;;12.23;6.03;;;14.10;99.90;;;;;;6103921;23;21000;-73
2023/10/11 03:36:52;;;;;;;5.40;3.90;;;14.10;99.90;;;;;;6104331;23;20376;-74
2023/10/11 03:39:28;;;;;;;8.87;5.70;;;14.10;99.90;;;;;;6104892;23;20381;-74
2023/10/11 03:42:07;;;;;;;7.50;4.73;;;14.10;99.90;;;;;;6104179;23;20381;-74
2023/10/11 03:44:39;;;;;;;9.90;5.37;;;14.00;99.90;;;;;;6104142;23;20404;-73
2023/10/11 03:47:07;;;;;;;8.87;5.53;;;14.00;99.90;;;;;;6104625;23;20369;-74
2023/10/11 03:49:37;;;;;;;6.87;4.77;;;14.00;99.90;;;;;;6106944;23;20356;-72
2023/10/11 03:52:04;;;;;;;9.23;5.00;;;14.00;99.90;;;;;;6108661;23;20373;-74
2023/10/11 03:54:30;;;;;;;6.47;4.80;;;14.00;99.90;;;;;;6110033;23;21028;-74
2023/10/11 03:56:55;;;;;;;8.77;4.77;;;14.00;99.90;;;;;;6109879;23;20361;-74
2023/10/11 03:59:38;;;;;;;6.40;4.07;;;14.00;99.90;;;;;;6110237;23;20144;-74
2023/10/11 04:02:04;;;;;;;10.47;6.43;;;14.00;99.90;;;;;;6105671;23;20659;-75
2023/10/11 04:04:30;;;;;;;8.07;5.37;;;14.00;99.90;;;;;;6106065;23;20424;-74
2023/10/11 04:07:01;;;;;;;8.27;5.33;;;14.00;99.90;;;;;;6105956;23;20479;-74
2023/10/11 04:12:03;;;;;;;9.60;5.80;;;13.90;99.90;;;;;;6104058;23;20456;-74
2023/10/11 04:14:44;;;;;;;10.60;5.03;;;13.90;99.90;;;;;;6104989;23;20432;-74
2023/10/11 04:22:49;;;;;;;8.97;5.07;;;13.90;99.90;;;;;;6113567;23;20449;-75
2023/10/11 04:25:18;;;;;;;11.33;5.60;;;13.90;99.90;;;;;;6107373;23;20361;-74
2023/10/11 04:30:26;;;;;;;9.07;4.80;;;13.90;99.90;;;;;;6108054;23;20368;-73
2023/10/11 04:32:56;;;;;;;7.27;5.30;;;13.80;99.90;;;;;;6109372;23;20418;-75
2023/10/11 04:35:25;;;;;;;7.27;4.90;;;13.80;99.90;;;;;;6112205;23;20621;-73
2023/10/11 04:37:55;;;;;;;8.27;4.70;;;13.70;99.90;;;;;;6086969;23;20444;-73
2023/10/11 04:45:45;;;;;;;5.07;3.80;;;13.50;99.90;;;;;;6116680;23;20384;-75
2023/10/11 04:48:18;;;;;;;6.17;4.43;;;13.40;99.90;;;;;;6112691;23;20631;-75
2023/10/11 04:50:49;;;;;;;5.63;4.40;;;13.40;99.90;;;;;;6112513;23;20372;-75
2023/10/11 04:53:21;;;;;;;12.77;6.27;;;13.30;99.90;;;;;;6111070;23;20431;-75
2023/10/11 04:56:04;;;;;;;9.73;5.00;;;13.30;99.90;;;;;;6087868;23;20373;-72
2023/10/11 04:58:49;;;;;;;12.80;5.47;;;13.30;99.90;;;;;;6091194;23;20461;-76
2023/10/11 05:01:22;;;;;;;10.50;6.50;;;13.40;99.90;;;;;;6089982;23;20482;-74
2023/10/11 05:04:00;;;;;;;9.00;6.07;;;13.30;99.90;;;;;;6109985;23;20455;-74
2023/10/11 05:06:39;;;;;;;8.20;5.30;;;13.40;99.90;;;;;;6111984;23;20650;-74
2023/10/11 05:09:13;;;;;;;12.00;5.73;;;13.40;99.90;;;;;;6111728;23;20380;-74
2023/10/11 05:11:44;;;;;;;10.53;5.87;;;13.40;99.90;;;;;;6111830;23;20371;-73
2023/10/11 05:14:26;;;;;;;6.13;5.40;;;13.50;99.90;;;;;;6109691;23;20753;-74
2023/10/11 05:16:58;;;;;;;8.80;4.87;;;13.50;99.90;;;;;;6110764;23;20380;-74
2023/10/11 05:19:35;;;;;;;8.17;5.23;;;13.50;99.90;;;;;;6109700;23;20387;-74
2023/10/11 05:22:03;;;;;;;8.37;5.73;;;13.50;99.90;;;;;;6087008;23;20416;-75
2023/10/11 05:32:41;;;;;;;9.20;4.90;;;13.50;99.90;;;;;;6113081;23;20380;-74
2023/10/11 05:51:26;;;;;;;7.43;5.50;;;13.60;99.90;;;;;;6114567;23;20413;-75
2023/10/11 05:53:56;;;;;;;8.53;5.73;;;13.60;99.90;;;;;;6110949;23;20424;-74
2023/10/11 05:56:22;;;;;;;8.43;4.87;;;13.60;99.90;;;;;;6112606;23;20408;-75
2023/10/11 05:58:52;;;;;;;8.27;4.30;;;13.60;99.90;;;;;;6087866;23;20787;-74
2023/10/11 06:01:22;;;;;;;7.23;4.50;;;13.70;99.90;;;;;;6090691;23;20411;-74
2023/10/11 06:03:51;;;;;;;6.23;4.60;;;13.70;99.90;;;;;;6113453;23;20405;-74
2023/10/11 06:06:32;;;;;;;9.67;5.50;;;13.70;99.90;;;;;;6087190;23;20857;-75
2023/10/11 06:08:59;;;;;;;9.00;4.90;;;13.70;99.90;;;;;;6112790;23;20392;-75
2023/10/11 06:11:29;;;;;;;7.23;5.37;;;13.80;99.90;;;;;;6089225;23;20383;-75
2023/10/11 06:14:04;;;;;;;7.80;5.60;;;13.80;99.90;;;;;;6111058;23;20491;-75
2023/10/11 06:16:39;;;;;;;7.27;5.10;;;13.90;99.90;;;;;;6114819;23;20702;-75
2023/10/11 06:19:18;;;;;;;8.60;5.23;;;14.00;99.90;;;;;;6112799;23;20512;-74
2023/10/11 06:21:56;;;;;;;11.87;5.70;;;14.10;99.90;;;;;;6113354;23;20383;-74
2023/10/11 06:24:36;;;;;;;8.47;5.30;;;14.20;99.90;;;;;;6090897;23;20713;-76
2023/10/11 06:28:09;;;;;;;10.33;5.60;;;14.30;99.90;;;;;;6115269;23;20384;-75
2023/10/11 06:29:57;;;;;;;7.57;5.50;;;14.40;99.90;;;;;;6115396;23;20428;-77
2023/10/11 06:32:25;;;;;;;12.40;5.17;;;14.50;99.90;;;;;;6112837;23;20455;-74
2023/10/11 06:34:52;;;;;;;14.10;6.70;;;14.50;99.90;;;;;;6113750;23;20393;-76
2023/10/11 06:37:24;;;;;;;12.27;5.60;;;14.60;99.90;;;;;;6091464;23;20388;-75
2023/10/11 06:40:08;;;;;;;8.10;5.40;;;14.60;99.90;;;;;;6115445;23;20373;-76
2023/10/11 06:42:35;;;;;;;10.30;6.70;;;14.70;99.90;;;;;;6092192;23;20408;-76
2023/10/11 06:45:05;;;;;;;12.27;7.00;;;14.70;99.90;;;;;;6092985;23;20904;-74
2023/10/11 06:47:37;;;;;;;8.80;6.03;;;14.80;99.90;;;;;;6118268;23;20394;-77
2023/10/11 06:50:11;;;;;;;12.77;6.20;;;14.90;99.90;;;;;;6118207;23;20361;-75
2023/10/11 06:52:48;;;;;;;9.27;6.80;;;15.00;99.90;;;;;;6094194;23;20479;-75
2023/10/11 06:55:17;;;;;;;12.63;6.33;;;15.00;99.90;;;;;;6093309;23;20372;-77
2023/10/11 06:57:45;;;;;;;13.43;6.00;;;15.10;99.90;;;;;;6116496;23;20368;-74
2023/10/11 07:00:28;;;;;;;12.10;5.80;;;15.20;99.90;;;;;;6091650;23;20384;-75
2023/10/11 07:06:01;;;;;;;7.77;5.43;;;15.30;99.90;;;;;;6118971;23;20465;-78
2023/10/11 07:08:35;;;;;;;9.43;6.27;;;15.40;99.90;;;;;;6116748;23;20361;-77
2023/10/11 07:14:00;;;;;;;11.20;6.53;;;15.50;99.90;;;;;;6058181;23;20677;-76
2023/10/11 07:16:37;;;;;;;10.87;5.90;;;15.60;99.90;;;;;;6034961;23;20403;-76
2023/10/11 07:19:04;;;;;;;8.73;5.50;;;15.60;99.90;;;;;;6034552;23;20382;-76
2023/10/11 07:21:52;;;;;;;9.87;5.40;;;15.70;99.90;;;;;;6011542;23;20590;-75
2023/10/11 07:27:08;;;;;;;7.30;4.97;;;15.90;99.90;;;;;;6032560;23;20438;-76
2023/10/11 07:29:42;;;;;;;6.30;4.10;;;16.00;99.90;;;;;;6032268;23;20401;-74
2023/10/11 07:32:12;;;;;;;7.60;4.50;;;16.10;99.90;;;;;;5986885;23;20393;-77
2023/10/11 07:34:40;;;;;;;15.60;5.77;;;16.20;99.90;;;;;;6096534;23;20438;-77
2023/10/11 07:37:07;;;;;;;14.13;6.37;;;16.20;99.90;;;;;;6120099;23;20380;-77
2023/10/11 07:39:36;;;;;;;14.83;6.40;;;16.30;99.90;;;;;;6143861;23;20429;-74
2023/10/11 07:42:09;;;;;;;8.47;5.70;;;16.30;99.90;;;;;;6146000;23;20376;-77
2023/10/11 07:44:43;;;;;;;10.63;5.27;;;16.40;99.90;;;;;;6081848;23;20406;-75
2023/10/11 07:47:16;;;;;;;10.40;4.20;;;16.50;99.90;;;;;;6010015;23;20428;-77
2023/10/11 07:49:49;;;;;;;6.50;3.80;;;16.60;99.90;;;;;;6033271;23;20371;-77
2023/10/11 07:52:19;;;;;;;7.80;4.73;;;16.70;99.90;;;;;;6010755;23;20493;-73
2023/10/11 07:54:46;;;;;;;9.00;5.20;;;16.80;99.90;;;;;;6057105;23;20748;-76
2023/10/11 07:57:15;;;;;;;6.30;4.30;;;16.90;99.90;;;;;;6009497;23;20377;-76
2023/10/11 07:59:44;;;;;;;9.30;4.60;;;17.00;99.90;;;;;;6033058;23;20862;-76
2023/10/11 08:02:41;;;;;;;6.67;4.13;;;17.10;99.90;;;;;;6056668;23;20359;-78
2023/10/11 08:04:59;;;;;;;9.70;4.70;;;17.20;99.90;;;;;;6034523;23;20417;-76
2023/10/11 08:07:25;;;;;;;7.93;5.00;;;17.30;99.90;;;;;;6058403;23;20377;-76
2023/10/11 08:09:55;;;;;;;8.10;4.20;;;17.40;99.90;;;;;;6058227;23;20814;-77
2023/10/11 08:12:23;;;;;;;6.50;4.80;;;17.60;99.90;;;;;;6035826;23;20373;-76
2023/10/11 08:14:56;;;;;;;8.33;3.93;;;17.70;99.90;;;;;;6026350;23;20455;-76
2023/10/11 08:17:29;;;;;;;11.53;5.63;;;17.80;99.90;;;;;;6118451;23;20372;-75
2023/10/11 08:20:00;;;;;;;6.63;4.70;;;17.90;99.90;;;;;;6118614;23;20367;-76
2023/10/11 08:22:27;;;;;;;8.27;4.00;;;18.00;99.90;;;;;;6110611;23;20445;-78
2023/10/11 08:24:56;;;;;;;5.73;4.00;;;18.10;99.90;;;;;;6147837;23;20403;-76
2023/10/11 08:27:31;;;;;;;7.50;4.70;;;18.20;99.90;;;;;;6123555;23;20454;-76
2023/10/11 08:33:09;;;;;;;9.03;4.83;;;18.50;99.90;;;;;;6041303;23;20438;-75
2023/10/11 08:35:38;;;;;;;6.53;4.90;;;18.70;99.40;;;;;;6034475;23;20378;-76
2023/10/11 08:38:07;;;;;;;9.77;5.07;;;18.80;97.90;;;;;;6060102;23;20387;-77
2023/10/11 08:40:40;;;;;;;9.03;4.47;;;18.80;96.80;;;;;;6037000;23;20394;-78
2023/10/11 08:43:09;;;;;;;6.50;4.30;;;19.00;96.10;;;;;;6012376;23;20629;-76
2023/10/11 08:45:50;;;;;;;7.13;4.60;;;19.00;95.30;;;;;;6034954;23;20454;-77
2023/10/11 08:48:18;;;;;;;7.83;4.40;;;19.10;94.30;;;;;;6037335;23;20527;-76
2023/10/11 08:50:55;;;;;;;4.90;3.60;;;19.20;93.90;;;;;;6059133;23;20505;-78
2023/10/11 08:53:24;;;;;;;10.70;5.10;;;19.30;93.30;;;;;;6034667;23;20505;-77
2023/10/11 08:56:05;;;;;;;6.10;4.40;;;19.40;92.70;;;;;;6060390;23;20367;-77
2023/10/11 08:58:37;;;;;;;7.60;4.80;;;19.50;92.40;;;;;;5974482;24;20456;-77
2023/10/11 09:01:07;;;;;;;6.07;3.73;;;19.60;91.70;;;;;;5954272;24;20402;-76
2023/10/11 09:03:40;;;;;;;6.17;3.73;;;19.70;91.10;;;;;;5953071;24;20449;-78
2023/10/11 09:06:22;;;;;;;6.07;4.40;;;19.80;90.50;;;;;;5952423;24;20385;-78
2023/10/11 09:08:51;;;;;;;8.23;4.63;;;19.90;89.10;;;;;;5960721;23;20389;-78
2023/10/11 09:11:34;;;;;;;9.50;4.70;;;20.00;87.80;;;;;;6035526;23;20393;-77
2023/10/11 09:14:29;;;;;;;5.37;4.13;;;20.10;86.80;;;;;;6060293;23;20492;-76
2023/10/11 09:17:02;;;;;;;6.53;3.50;;;20.20;85.30;;;;;;6016824;23;20366;-76
2023/10/11 09:19:53;;;;;;;8.67;4.43;;;20.30;84.40;;;;;;6037635;23;20394;-77
2023/10/11 09:22:55;;;;;;;6.60;3.87;;;20.30;82.40;;;;;;6063155;23;20436;-76
2023/10/11 09:25:57;;;;;;;5.73;4.03;;;20.40;81.60;;;;;;6122205;23;20392;-77
2023/10/11 09:28:26;;;;;;;5.03;3.73;;;20.50;81.10;;;;;;6101835;23;20360;-77
2023/10/11 09:31:35;;;;;;;6.70;4.80;;;20.60;80.60;;;;;;6099198;23;20459;-77
2023/10/11 09:34:07;;;;;;;10.33;4.10;;;20.70;79.50;;;;;;6096064;23;20412;-76
2023/10/11 09:36:54;;;;;;;7.67;3.63;;;20.80;78.90;;;;;;6121726;23;20368;-77
2023/10/11 09:39:21;;;;;;;5.40;3.00;;;20.90;77.20;;;;;;6121057;23;20384;-76
2023/10/11 09:47:31;;;;;;;7.70;5.00;;;21.20;76.10;;;;;;6113676;23;20448;-77
2023/10/11 09:50:05;;;;;;;6.30;4.53;;;21.30;74.50;;;;;;6123047;23;20395;-78
2023/10/11 09:59:34;;;;;;;8.20;4.70;;;21.60;71.70;;;;;;6128862;23;20442;-76
2023/10/11 10:02:13;;;;;;;4.37;3.97;;;21.60;69.00;;;;;;6149032;23;20368;-78
2023/10/11 10:04:54;;;;;;;5.90;4.00;;;21.80;69.30;;;;;;6130869;23;20411;-79
2023/10/11 10:46:38;;;;;;;8.47;4.80;;;23.30;54.50;;;;;;6106894;23;20480;-78
2023/10/11 10:49:04;;;;;;;4.53;3.23;;;23.40;54.00;;;;;;6077607;23;20854;-78
2023/10/11 10:51:39;;;;;;;6.90;3.23;;;23.50;54.90;;;;;;6099479;23;20408;-78
2023/10/11 10:54:14;;;;;;;6.07;4.10;;;23.70;54.70;;;;;;6077031;23;20424;-78
2023/10/11 10:56:53;;;;;;;10.10;4.30;;;23.90;54.40;;;;;;6077472;23;20380;-77
2023/10/11 11:07:33;;;;;;;8.33;4.13;;;24.20;52.30;;;;;;6117436;23;20450;-75
2023/10/11 11:10:22;;;;;;;6.60;3.67;;;24.30;52.30;;;;;;6154086;23;20452;-79
2023/10/11 12:04:58;;;;;;;14.13;4.80;;;24.70;48.00;;;;;;6099093;23;20451;-78
2023/10/11 12:07:25;;;;;;;9.80;4.83;;;24.90;47.50;;;;;;6098766;23;20376;-78
2023/10/11 12:09:55;;;;;;;11.03;5.00;;;24.90;47.60;;;;;;6097776;23;20412;-77
2023/10/11 12:12:51;;;;;;;7.13;4.13;;;24.90;47.50;;;;;;6073869;23;20168;-78
2023/10/11 12:15:41;;;;;;;10.07;4.77;;;24.90;47.00;;;;;;6079294;23;20392;-78
2023/10/11 12:30:22;;;;;;;14.60;5.30;;;25.70;46.50;;;;;;6104739;23;20524;-78
2023/10/11 12:32:52;;;;;;;14.00;4.77;;;25.70;45.70;;;;;;6040364;23;20394;-78
2023/10/11 12:35:54;;;;;;;17.20;5.13;;;25.70;46.10;;;;;;6136063;23;20425;-76
2023/10/11 12:38:39;;;;;;;8.70;4.80;;;25.50;45.30;;;;;;6111453;23;20380;-78
2023/10/11 12:41:45;;;;;;;8.50;4.67;;;25.40;46.10;;;;;;6071121;23;20380;-79
2023/10/11 12:44:11;;;;;;;8.80;3.83;;;25.50;47.00;;;;;;6094169;23;20437;-78
2023/10/11 12:46:39;;;;;;;8.43;4.97;;;25.30;47.10;;;;;;6132200;23;20361;-79
2023/10/11 12:49:50;;;;;;;9.60;4.33;;;25.30;48.10;;;;;;6133729;23;20390;-78
2023/10/11 12:52:30;;;;;;;7.80;4.60;;;25.30;50.10;;;;;;6103687;23;20425;-79
2023/10/11 12:55:22;;;;;;;19.57;5.10;;;25.10;50.20;;;;;;6121627;23;20420;-78
2023/10/11 13:00:53;;;;;;;9.57;4.63;;;25.00;47.60;;;;;;6149924;23;20434;-79
2023/10/11 13:09:03;;;;;;;7.70;5.17;;;25.00;48.00;;;;;;6131781;23;20466;-78
2023/10/11 13:11:44;;;;;;;9.70;4.57;;;25.00;48.20;;;;;;6153128;23;20790;-77
2023/10/11 13:19:51;;;;;;;19.43;5.60;;;25.00;48.40;;;;;;6065657;23;20446;-77
2023/10/11 13:22:40;;;;;;;12.60;5.70;;;24.90;48.20;;;;;;6017237;23;20370;-78
2023/10/11 13:25:25;;;;;;;20.83;5.00;;;25.00;48.10;;;;;;6039311;23;20430;-78
2023/10/11 13:27:55;;;;;;;24.43;5.83;;;25.00;48.20;;;;;;5983682;24;20440;-77
2023/10/11 13:30:25;;;;;;;12.73;5.53;;;25.00;48.20;;;;;;6006023;23;20420;-77
2023/10/11 13:32:57;;;;;;;15.20;5.23;;;25.10;49.10;;;;;;6052611;23;20388;-78
2023/10/11 13:35:26;;;;;;;7.57;4.77;;;25.20;50.00;;;;;;5983333;24;20367;-79
2023/10/11 13:37:55;;;;;;;35.70;6.60;;;25.10;51.50;;;;;;6007155;23;20405;-77
2023/10/11 13:40:32;;;;;;;17.50;5.60;;;25.00;51.60;;;;;;6030444;23;20408;-76
2023/10/11 13:48:30;;;;;;;41.53;6.80;;;25.00;50.40;;;;;;6077422;23;20483;-78
2023/10/11 13:50:58;;;;;;;33.90;6.27;;;25.10;48.00;;;;;;6096128;23;20380;-77
2023/10/11 13:53:26;;;;;;;55.23;8.60;;;25.10;47.40;;;;;;6050485;23;20440;-79
2023/10/11 13:55:54;;;;;;;11.47;4.77;;;25.00;47.70;;;;;;6076574;23;20396;-77
2023/10/11 13:58:22;;;;;;;12.63;4.43;;;25.10;47.70;;;;;;6074464;23;20380;-78
2023/10/11 14:15:51;;;;;;;16.17;5.10;;;25.30;46.60;;;;;;6129204;23;20463;-77
2023/10/11 14:21:20;;;;;;;7.33;4.03;;;25.40;46.00;;;;;;6142422;23;20478;-79
2023/10/11 14:23:53;;;;;;;6.07;3.60;;;25.40;46.20;;;;;;6093002;23;20408;-78
2023/10/11 14:26:22;;;;;;;4.33;3.40;;;25.30;46.30;;;;;;6074909;23;20399;-78
2023/10/11 14:28:52;;;;;;;14.30;4.13;;;25.30;46.40;;;;;;6075470;23;20383;-78
2023/10/11 14:31:22;;;;;;;10.07;4.30;;;25.40;46.40;;;;;;6097662;23;20381;-78
2023/10/11 14:33:57;;;;;;;9.53;4.07;;;25.40;46.30;;;;;;6083722;23;20455;-76
2023/10/11 14:39:49;;;;;;;5.50;3.60;;;25.50;46.40;;;;;;6064318;23;20453;-79
2023/10/11 14:44:52;;;;;;;5.00;3.00;;;25.40;46.60;;;;;;6171736;23;20452;-78
2023/10/11 14:47:19;;;;;;;6.23;4.63;;;25.30;46.80;;;;;;6133101;23;20387;-79
2023/10/11 14:50:02;;;;;;;7.83;4.00;;;25.30;46.90;;;;;;6158467;23;20146;-78
2023/10/11 14:52:43;;;;;;;6.97;3.83;;;25.20;47.10;;;;;;6134918;23;20398;-79
2023/10/11 14:58:01;;;;;;;5.50;3.20;;;25.10;47.60;;;;;;6133316;23;20445;-79
2023/10/11 15:00:34;;;;;;;7.00;2.97;;;25.00;47.90;;;;;;6158043;23;20430;-78
2023/10/11 15:03:08;;;;;;;12.97;4.10;;;25.00;47.80;;;;;;6181507;23;20354;-77
2023/10/11 15:05:37;;;;;;;5.07;2.53;;;24.90;48.00;;;;;;6181940;23;20462;-79
2023/10/11 15:08:16;;;;;;;7.20;4.03;;;24.90;48.10;;;;;;6157709;23;20384;-78
2023/10/11 15:11:04;;;;;;;9.10;4.47;;;24.90;48.20;;;;;;6181310;23;20370;-79
2023/10/11 15:13:37;;;;;;;7.20;3.90;;;24.90;48.20;;;;;;6157589;23;20470;-79
2023/10/11 15:16:15;;;;;;;7.43;3.23;;;24.90;48.30;;;;;;6159873;23;20422;-78
2023/10/11 15:18:43;;;;;;;4.70;3.20;;;24.90;48.40;;;;;;6157375;23;20410;-77
2023/10/11 15:21:55;;;;;;;6.10;3.47;;;24.80;48.50;;;;;;6183786;23;20386;-79
2023/10/11 15:24:29;;;;;;;6.77;4.17;;;24.70;48.50;;;;;;6106128;23;20410;-78
2023/10/11 15:26:56;;;;;;;6.80;4.03;;;24.60;48.60;;;;;;6152046;23;20368;-79
2023/10/11 15:29:56;;;;;;;6.67;3.80;;;24.50;48.60;;;;;;6133326;23;20360;-77
2023/10/11 15:35:16;;;;;;;6.73;3.70;;;24.40;48.50;;;;;;6142315;23;20461;-78
2023/10/11 15:40:26;;;;;;;7.10;4.00;;;24.40;48.90;;;;;;6146891;23;20448;-77
2023/10/11 15:46:24;;;;;;;8.30;3.80;;;24.40;48.40;;;;;;6098974;23;20445;-78
2023/10/11 15:48:55;;;;;;;6.90;4.37;;;24.30;48.40;;;;;;6063827;23;20386;-77
2023/10/11 15:54:22;;;;;;;10.70;4.83;;;24.10;48.50;;;;;;6105642;23;20437;-77
2023/10/11 15:57:00;;;;;;;7.97;4.50;;;24.00;48.80;;;;;;6093194;23;20358;-77
2023/10/11 16:00:13;;;;;;;8.63;5.20;;;23.90;48.90;;;;;;6078050;23;20452;-78
2023/10/11 16:02:42;;;;;;;13.00;5.00;;;23.80;48.90;;;;;;6126835;23;20399;-78
2023/10/11 16:05:43;;;;;;;10.13;4.93;;;23.70;49.20;;;;;;6122507;23;20432;-79
2023/10/11 16:08:37;;;;;;;10.27;5.00;;;23.60;48.90;;;;;;6101398;23;20402;-79
2023/10/11 16:11:05;;;;;;;7.63;3.93;;;23.50;48.90;;;;;;6075224;23;20395;-78
2023/10/11 16:13:45;;;;;;;11.30;5.37;;;23.50;48.90;;;;;;6098660;23;20467;-79
2023/10/11 16:16:16;;;;;;;8.50;4.37;;;23.40;48.70;;;;;;6028207;23;20384;-78
2023/10/11 16:24:23;;;;;;;8.27;4.20;;;23.10;47.80;;;;;;6169999;23;20493;-79
2023/10/11 16:26:53;;;;;;;7.50;3.70;;;23.00;47.80;;;;;;6156691;23;20363;-78
2023/10/11 16:32:38;;;;;;;9.10;3.73;;;22.80;47.90;;;;;;6063479;23;20437;-79
2023/10/11 16:35:08;;;;;;;7.67;4.00;;;22.70;48.20;;;;;;6016708;23;20481;-76
2023/10/11 16:37:36;;;;;;;7.93;3.93;;;22.60;48.50;;;;;;6017679;23;20390;-79
2023/10/11 16:40:04;;;;;;;6.83;4.30;;;22.40;48.60;;;;;;6041021;23;20412;-79
2023/10/11 16:42:34;;;;;;;6.87;3.70;;;22.30;48.60;;;;;;6118167;23;20454;-77
2023/10/11 16:45:02;;;;;;;9.03;4.90;;;22.30;48.70;;;;;;6154494;23;20407;-79
2023/10/11 16:47:30;;;;;;;8.73;4.30;;;22.20;48.80;;;;;;6081816;23;20467;-77
2023/10/11 16:49:59;;;;;;;10.60;4.67;;;22.10;49.00;;;;;;6129369;23;20390;-79
2023/10/11 17:20:37;;;;;;;8.10;3.87;;;21.50;48.40;;;;;;6127113;23;20454;31
2023/10/11 17:26:21;;;;;;;5.57;3.73;;;21.50;48.50;;;;;;6105448;23;20454;-77
2023/10/11 17:29:22;;;;;;;7.43;4.50;;;21.40;48.80;;;;;;6154701;23;20824;-79
2023/10/11 17:44:26;;;;;;;8.43;4.50;;;21.20;51.60;;;;;;6110132;23;20451;-75
2023/10/11 17:56:33;;;;;;;6.37;4.60;;;21.20;53.90;;;;;;6143497;23;20458;-78
2023/10/11 17:59:12;;;;;;;10.27;4.50;;;21.20;54.40;;;;;;6116129;23;20379;-79
2023/10/11 18:02:02;;;;;;;8.30;5.50;;;21.20;54.80;;;;;;6101484;23;20395;-77
2023/10/11 18:04:50;;;;;;;7.73;4.70;;;21.10;55.10;;;;;;6120430;23;20456;-76
2023/10/11 18:07:19;;;;;;;7.00;4.30;;;21.10;55.50;;;;;;6075062;23;20381;-78
2023/10/11 18:13:16;;;;;;;6.73;5.20;;;21.00;55.90;;;;;;6123829;23;20451;-78
2023/10/11 18:15:56;;;;;;;8.13;4.90;;;21.00;56.30;;;;;;6101179;23;20364;-77
2023/10/11 18:28:41;;;;;;;7.23;5.07;;;20.90;57.40;;;;;;6095540;23;20397;-78
2023/10/11 18:40:06;;;;;;;7.20;4.37;;;20.80;58.50;;;;;;6147076;23;20425;-77